sensor_id;sensor_type;location;lat;lon;timestamp;temperature;humidity
71754;DHT22;59593;51.716;7.016;2023-04-08T00:00:05;5.50;99.90
71754;DHT22;59593;51.716;7.016;2023-04-08T00:02:32;5.40;99.90
71754;DHT22;59593;51.716;7.016;2023-04-08T00:04:58;5.30;99.90
71754;DHT22;59593;51.716;7.016;2023-04-08T00:07:24;5.30;99.90
71754;DHT22;59593;51.716;7.016;2023-04-08T00:09:49;5.30;99.90
71754;DHT22;59593;51.716;7.016;2023-04-08T00:12:15;5.30;99.90
71754;DHT22;59593;51.716;7.016;2023-04-08T00:14:41;5.30;99.90
71754;DHT22;59593;51.716;7.016;2023-04-08T00:17:07;5.30;99.90
71754;DHT22;59593;51.716;7.016;2023-04-08T00:19:32;5.30;99.90
71754;DHT22;59593;51.716;7.016;2023-04-08T00:21:59;5.20;99.90
71754;DHT22;59593;51.716;7.016;2023-04-08T00:24:24;5.10;99.90
71754;DHT22;59593;51.716;7.016;2023-04-08T00:26:51;5.10;99.90
71754;DHT22;59593;51.716;7.016;2023-04-08T00:29:16;5.00;99.90
71754;DHT22;59593;51.716;7.016;2023-04-08T00:31:42;4.90;99.90
71754;DHT22;59593;51.716;7.016;2023-04-08T00:34:07;4.90;99.90
71754;DHT22;59593;51.716;7.016;2023-04-08T00:36:33;5.00;99.90
71754;DHT22;59593;51.716;7.016;2023-04-08T00:39:00;5.00;99.90
71754;DHT22;59593;51.716;7.016;2023-04-08T00:41:26;5.00;99.90
71754;DHT22;59593;51.716;7.016;2023-04-08T00:43:52;4.90;99.90
71754;DHT22;59593;51.716;7.016;2023-04-08T00:46:18;5.00;99.90
71754;DHT22;59593;51.716;7.016;2023-04-08T00:48:44;4.90;99.90
71754;DHT22;59593;51.716;7.016;2023-04-08T00:51:10;4.80;99.90
71754;DHT22;59593;51.716;7.016;2023-04-08T00:53:36;4.60;99.90
71754;DHT22;59593;51.716;7.016;2023-04-08T00:56:02;4.60;99.90
71754;DHT22;59593;51.716;7.016;2023-04-08T00:58:28;4.60;99.90
71754;DHT22;59593;51.716;7.016;2023-04-08T01:01:06;4.50;99.90
71754;DHT22;59593;51.716;7.016;2023-04-08T01:04:01;4.50;99.90
71754;DHT22;59593;51.716;7.016;2023-04-08T01:06:39;4.30;99.90
71754;DHT22;59593;51.716;7.016;2023-04-08T01:09:08;4.40;99.90
71754;DHT22;59593;51.716;7.016;2023-04-08T01:11:37;4.40;99.90
71754;DHT22;59593;51.716;7.016;2023-04-08T01:14:07;4.40;99.90
71754;DHT22;59593;51.716;7.016;2023-04-08T01:16:37;4.40;99.90
71754;DHT22;59593;51.716;7.016;2023-04-08T01:19:07;4.20;99.90
71754;DHT22;59593;51.716;7.016;2023-04-08T01:21:36;4.30;99.90
71754;DHT22;59593;51.716;7.016;2023-04-08T01:24:17;4.30;99.90
71754;DHT22;59593;51.716;7.016;2023-04-08T01:26:44;4.30;99.90
71754;DHT22;59593;51.716;7.016;2023-04-08T01:29:11;4.20;99.90
71754;DHT22;59593;51.716;7.016;2023-04-08T01:31:40;4.20;99.90
71754;DHT22;59593;51.716;7.016;2023-04-08T01:34:07;4.20;99.90
71754;DHT22;59593;51.716;7.016;2023-04-08T01:36:34;4.10;99.90
71754;DHT22;59593;51.716;7.016;2023-04-08T01:39:02;4.20;99.90
71754;DHT22;59593;51.716;7.016;2023-04-08T01:41:31;4.10;99.90
71754;DHT22;59593;51.716;7.016;2023-04-08T01:43:59;4.10;99.90
71754;DHT22;59593;51.716;7.016;2023-04-08T01:46:25;4.20;99.90
71754;DHT22;59593;51.716;7.016;2023-04-08T01:48:51;4.10;99.90
71754;DHT22;59593;51.716;7.016;2023-04-08T01:51:18;4.20;99.90
71754;DHT22;59593;51.716;7.016;2023-04-08T01:53:44;4.30;99.90
71754;DHT22;59593;51.716;7.016;2023-04-08T01:56:14;4.20;99.90
71754;DHT22;59593;51.716;7.016;2023-04-08T01:58:47;4.10;99.90
71754;DHT22;59593;51.716;7.016;2023-04-08T02:01:18;4.10;99.90
71754;DHT22;59593;51.716;7.016;2023-04-08T02:03:45;4.20;99.90
71754;DHT22;59593;51.716;7.016;2023-04-08T02:06:12;4.10;99.90
71754;DHT22;59593;51.716;7.016;2023-04-08T02:08:37;4.00;99.90
71754;DHT22;59593;51.716;7.016;2023-04-08T02:11:03;4.10;99.90
71754;DHT22;59593;51.716;7.016;2023-04-08T02:13:30;4.00;99.90
71754;DHT22;59593;51.716;7.016;2023-04-08T02:19:09;3.80;99.90
71754;DHT22;59593;51.716;7.016;2023-04-08T02:21:42;3.80;99.90
71754;DHT22;59593;51.716;7.016;2023-04-08T02:24:09;3.80;99.90
71754;DHT22;59593;51.716;7.016;2023-04-08T02:26:38;3.70;99.90
71754;DHT22;59593;51.716;7.016;2023-04-08T02:29:04;3.60;99.90
71754;DHT22;59593;51.716;7.016;2023-04-08T02:31:32;3.60;99.90
71754;DHT22;59593;51.716;7.016;2023-04-08T02:33:59;3.60;99.90
71754;DHT22;59593;51.716;7.016;2023-04-08T02:36:25;3.60;99.90
71754;DHT22;59593;51.716;7.016;2023-04-08T02:38:51;3.60;99.90
71754;DHT22;59593;51.716;7.016;2023-04-08T02:41:16;3.60;99.90
71754;DHT22;59593;51.716;7.016;2023-04-08T02:43:42;3.60;99.90
71754;DHT22;59593;51.716;7.016;2023-04-08T02:46:08;3.50;99.90
71754;DHT22;59593;51.716;7.016;2023-04-08T02:48:35;3.40;99.90
71754;DHT22;59593;51.716;7.016;2023-04-08T02:51:01;3.50;99.90
71754;DHT22;59593;51.716;7.016;2023-04-08T02:53:26;3.50;99.90
71754;DHT22;59593;51.716;7.016;2023-04-08T02:55:52;3.40;99.90
71754;DHT22;59593;51.716;7.016;2023-04-08T02:58:17;3.40;99.90
71754;DHT22;59593;51.716;7.016;2023-04-08T03:00:43;3.40;99.90
71754;DHT22;59593;51.716;7.016;2023-04-08T03:03:09;3.30;99.90
71754;DHT22;59593;51.716;7.016;2023-04-08T03:05:34;3.20;99.90
71754;DHT22;59593;51.716;7.016;2023-04-08T03:08:00;3.40;99.90
71754;DHT22;59593;51.716;7.016;2023-04-08T03:10:25;3.40;99.90
71754;DHT22;59593;51.716;7.016;2023-04-08T03:12:51;3.30;99.90
71754;DHT22;59593;51.716;7.016;2023-04-08T03:15:17;3.30;99.90
71754;DHT22;59593;51.716;7.016;2023-04-08T03:17:42;3.20;99.90
71754;DHT22;59593;51.716;7.016;2023-04-08T03:20:08;3.10;99.90
71754;DHT22;59593;51.716;7.016;2023-04-08T03:22:35;3.20;99.90
71754;DHT22;59593;51.716;7.016;2023-04-08T03:25:01;3.20;99.90
71754;DHT22;59593;51.716;7.016;2023-04-08T03:27:26;3.10;99.90
71754;DHT22;59593;51.716;7.016;2023-04-08T03:29:52;3.10;99.90
71754;DHT22;59593;51.716;7.016;2023-04-08T03:32:18;3.10;99.90
71754;DHT22;59593;51.716;7.016;2023-04-08T03:34:45;3.00;99.90
71754;DHT22;59593;51.716;7.016;2023-04-08T03:37:10;3.10;99.90
71754;DHT22;59593;51.716;7.016;2023-04-08T03:39:37;3.10;99.90
71754;DHT22;59593;51.716;7.016;2023-04-08T03:42:02;3.00;99.90
71754;DHT22;59593;51.716;7.016;2023-04-08T03:44:28;3.10;99.90
71754;DHT22;59593;51.716;7.016;2023-04-08T03:46:54;3.00;99.90
71754;DHT22;59593;51.716;7.016;2023-04-08T03:49:19;3.00;99.90
71754;DHT22;59593;51.716;7.016;2023-04-08T03:51:45;2.90;99.90
71754;DHT22;59593;51.716;7.016;2023-04-08T03:54:11;2.90;99.90
71754;DHT22;59593;51.716;7.016;2023-04-08T03:56:36;2.90;99.90
71754;DHT22;59593;51.716;7.016;2023-04-08T03:59:02;2.90;99.90
71754;DHT22;59593;51.716;7.016;2023-04-08T04:01:27;2.80;99.90
71754;DHT22;59593;51.716;7.016;2023-04-08T04:03:54;2.60;99.90
71754;DHT22;59593;51.716;7.016;2023-04-08T04:06:20;2.50;99.90
71754;DHT22;59593;51.716;7.016;2023-04-08T04:08:45;2.60;99.90
71754;DHT22;59593;51.716;7.016;2023-04-08T04:11:11;2.60;99.90
71754;DHT22;59593;51.716;7.016;2023-04-08T04:13:36;2.60;99.90
71754;DHT22;59593;51.716;7.016;2023-04-08T04:16:02;2.50;99.90
71754;DHT22;59593;51.716;7.016;2023-04-08T04:18:28;2.60;99.90
71754;DHT22;59593;51.716;7.016;2023-04-08T04:20:53;2.60;99.90
71754;DHT22;59593;51.716;7.016;2023-04-08T04:23:19;2.50;99.90
71754;DHT22;59593;51.716;7.016;2023-04-08T04:25:45;2.60;99.90
71754;DHT22;59593;51.716;7.016;2023-04-08T04:28:10;2.50;99.90
71754;DHT22;59593;51.716;7.016;2023-04-08T04:30:37;2.40;99.90
71754;DHT22;59593;51.716;7.016;2023-04-08T04:33:04;2.50;99.90
71754;DHT22;59593;51.716;7.016;2023-04-08T04:35:29;2.50;99.90
71754;DHT22;59593;51.716;7.016;2023-04-08T04:37:55;2.40;99.90
71754;DHT22;59593;51.716;7.016;2023-04-08T04:40:21;2.40;99.90
71754;DHT22;59593;51.716;7.016;2023-04-08T04:42:46;2.40;99.90
71754;DHT22;59593;51.716;7.016;2023-04-08T04:45:12;2.40;99.90
71754;DHT22;59593;51.716;7.016;2023-04-08T04:47:38;2.40;99.90
71754;DHT22;59593;51.716;7.016;2023-04-08T04:50:04;2.50;99.90
71754;DHT22;59593;51.716;7.016;2023-04-08T04:52:30;2.40;99.90
71754;DHT22;59593;51.716;7.016;2023-04-08T04:54:59;2.50;99.90
71754;DHT22;59593;51.716;7.016;2023-04-08T04:57:24;2.50;99.90
71754;DHT22;59593;51.716;7.016;2023-04-08T04:59:50;2.60;99.90
71754;DHT22;59593;51.716;7.016;2023-04-08T05:02:16;2.40;99.90
71754;DHT22;59593;51.716;7.016;2023-04-08T05:04:41;2.40;99.90
71754;DHT22;59593;51.716;7.016;2023-04-08T05:07:07;2.50;99.90
71754;DHT22;59593;51.716;7.016;2023-04-08T05:09:32;2.40;99.90
71754;DHT22;59593;51.716;7.016;2023-04-08T05:11:58;2.50;99.90
71754;DHT22;59593;51.716;7.016;2023-04-08T05:14:23;2.50;99.90
71754;DHT22;59593;51.716;7.016;2023-04-08T05:16:49;2.60;99.90
71754;DHT22;59593;51.716;7.016;2023-04-08T05:19:15;2.70;99.90
71754;DHT22;59593;51.716;7.016;2023-04-08T05:21:40;2.60;99.90
71754;DHT22;59593;51.716;7.016;2023-04-08T05:24:06;2.60;99.90
71754;DHT22;59593;51.716;7.016;2023-04-08T05:26:31;2.70;99.90
71754;DHT22;59593;51.716;7.016;2023-04-08T05:28:57;2.70;99.90
71754;DHT22;59593;51.716;7.016;2023-04-08T05:31:23;2.70;99.90
71754;DHT22;59593;51.716;7.016;2023-04-08T05:33:48;2.90;99.90
71754;DHT22;59593;51.716;7.016;2023-04-08T05:36:14;3.00;99.90
71754;DHT22;59593;51.716;7.016;2023-04-08T05:38:40;3.10;99.90
71754;DHT22;59593;51.716;7.016;2023-04-08T05:41:07;3.10;99.90
71754;DHT22;59593;51.716;7.016;2023-04-08T05:43:33;3.10;99.90
71754;DHT22;59593;51.716;7.016;2023-04-08T05:45:59;3.20;99.90
71754;DHT22;59593;51.716;7.016;2023-04-08T05:48:24;3.40;99.90
71754;DHT22;59593;51.716;7.016;2023-04-08T05:50:50;3.40;99.90
71754;DHT22;59593;51.716;7.016;2023-04-08T05:53:15;3.40;99.90
71754;DHT22;59593;51.716;7.016;2023-04-08T05:55:41;3.40;99.90
71754;DHT22;59593;51.716;7.016;2023-04-08T05:58:07;3.50;99.90
71754;DHT22;59593;51.716;7.016;2023-04-08T06:00:33;3.50;99.90
71754;DHT22;59593;51.716;7.016;2023-04-08T06:02:58;3.40;99.90
71754;DHT22;59593;51.716;7.016;2023-04-08T06:05:24;3.40;99.90
71754;DHT22;59593;51.716;7.016;2023-04-08T06:07:50;3.50;99.90
71754;DHT22;59593;51.716;7.016;2023-04-08T06:10:16;3.60;99.90
71754;DHT22;59593;51.716;7.016;2023-04-08T06:12:41;3.70;99.90
71754;DHT22;59593;51.716;7.016;2023-04-08T06:15:08;3.90;99.90
71754;DHT22;59593;51.716;7.016;2023-04-08T06:17:37;4.10;99.90
71754;DHT22;59593;51.716;7.016;2023-04-08T06:20:06;4.20;99.90
71754;DHT22;59593;51.716;7.016;2023-04-08T06:22:34;4.30;99.90
71754;DHT22;59593;51.716;7.016;2023-04-08T06:25:01;4.30;99.90
71754;DHT22;59593;51.716;7.016;2023-04-08T06:27:26;4.30;99.90
71754;DHT22;59593;51.716;7.016;2023-04-08T06:29:52;4.30;99.90
71754;DHT22;59593;51.716;7.016;2023-04-08T06:32:18;4.40;99.90
71754;DHT22;59593;51.716;7.016;2023-04-08T06:34:44;4.50;99.90
71754;DHT22;59593;51.716;7.016;2023-04-08T06:37:10;4.50;99.90
71754;DHT22;59593;51.716;7.016;2023-04-08T06:39:36;4.60;99.90
71754;DHT22;59593;51.716;7.016;2023-04-08T06:42:01;4.80;99.90
71754;DHT22;59593;51.716;7.016;2023-04-08T06:44:27;4.80;99.90
71754;DHT22;59593;51.716;7.016;2023-04-08T06:46:52;4.70;99.90
71754;DHT22;59593;51.716;7.016;2023-04-08T06:49:18;4.80;99.90
71754;DHT22;59593;51.716;7.016;2023-04-08T06:51:43;4.90;99.90
71754;DHT22;59593;51.716;7.016;2023-04-08T06:54:09;5.10;99.90
71754;DHT22;59593;51.716;7.016;2023-04-08T06:56:35;5.20;99.90
71754;DHT22;59593;51.716;7.016;2023-04-08T06:59:01;5.30;99.90
71754;DHT22;59593;51.716;7.016;2023-04-08T07:01:28;5.30;99.90
71754;DHT22;59593;51.716;7.016;2023-04-08T07:03:53;5.20;99.90
71754;DHT22;59593;51.716;7.016;2023-04-08T07:06:19;5.20;99.90
71754;DHT22;59593;51.716;7.016;2023-04-08T07:08:45;5.40;99.90
71754;DHT22;59593;51.716;7.016;2023-04-08T07:11:10;5.60;99.90
71754;DHT22;59593;51.716;7.016;2023-04-08T07:13:36;5.90;99.90
71754;DHT22;59593;51.716;7.016;2023-04-08T07:16:02;6.20;99.90
71754;DHT22;59593;51.716;7.016;2023-04-08T07:18:27;6.30;99.90
71754;DHT22;59593;51.716;7.016;2023-04-08T07:20:53;6.40;99.90
71754;DHT22;59593;51.716;7.016;2023-04-08T07:23:19;6.40;99.90
71754;DHT22;59593;51.716;7.016;2023-04-08T07:25:45;6.40;99.90
71754;DHT22;59593;51.716;7.016;2023-04-08T07:28:11;6.30;99.90
71754;DHT22;59593;51.716;7.016;2023-04-08T07:30:37;6.40;99.90
71754;DHT22;59593;51.716;7.016;2023-04-08T07:33:02;6.30;99.90
71754;DHT22;59593;51.716;7.016;2023-04-08T07:35:28;6.40;99.90
71754;DHT22;59593;51.716;7.016;2023-04-08T07:37:54;6.50;99.90
71754;DHT22;59593;51.716;7.016;2023-04-08T07:40:20;6.40;99.90
71754;DHT22;59593;51.716;7.016;2023-04-08T07:42:46;6.40;99.90
71754;DHT22;59593;51.716;7.016;2023-04-08T07:45:11;6.30;99.90
71754;DHT22;59593;51.716;7.016;2023-04-08T07:47:37;6.60;99.90
71754;DHT22;59593;51.716;7.016;2023-04-08T07:50:03;6.50;99.90
71754;DHT22;59593;51.716;7.016;2023-04-08T07:52:32;6.70;99.90
71754;DHT22;59593;51.716;7.016;2023-04-08T07:54:58;7.00;99.90
71754;DHT22;59593;51.716;7.016;2023-04-08T07:57:24;7.20;99.90
71754;DHT22;59593;51.716;7.016;2023-04-08T07:59:50;7.20;99.90
71754;DHT22;59593;51.716;7.016;2023-04-08T08:02:16;7.50;99.90
71754;DHT22;59593;51.716;7.016;2023-04-08T08:04:41;7.60;99.90
71754;DHT22;59593;51.716;7.016;2023-04-08T08:07:07;7.80;99.90
71754;DHT22;59593;51.716;7.016;2023-04-08T08:09:32;7.80;99.90
71754;DHT22;59593;51.716;7.016;2023-04-08T08:11:58;7.80;99.90
71754;DHT22;59593;51.716;7.016;2023-04-08T08:14:24;8.00;99.90
71754;DHT22;59593;51.716;7.016;2023-04-08T08:16:51;7.70;99.90
71754;DHT22;59593;51.716;7.016;2023-04-08T08:19:16;7.90;99.90
71754;DHT22;59593;51.716;7.016;2023-04-08T08:21:42;8.10;99.90
71754;DHT22;59593;51.716;7.016;2023-04-08T08:24:08;8.00;99.90
71754;DHT22;59593;51.716;7.016;2023-04-08T08:26:34;7.80;99.90
71754;DHT22;59593;51.716;7.016;2023-04-08T08:29:01;8.00;99.90
71754;DHT22;59593;51.716;7.016;2023-04-08T08:31:27;8.00;99.90
71754;DHT22;59593;51.716;7.016;2023-04-08T08:33:52;8.00;99.90
71754;DHT22;59593;51.716;7.016;2023-04-08T08:36:18;7.80;99.90
71754;DHT22;59593;51.716;7.016;2023-04-08T08:38:43;8.00;99.90
71754;DHT22;59593;51.716;7.016;2023-04-08T08:41:09;8.30;99.90
71754;DHT22;59593;51.716;7.016;2023-04-08T08:43:35;8.50;99.90
71754;DHT22;59593;51.716;7.016;2023-04-08T08:46:02;8.70;99.90
71754;DHT22;59593;51.716;7.016;2023-04-08T08:48:28;9.00;99.90
71754;DHT22;59593;51.716;7.016;2023-04-08T08:50:53;9.20;99.90
71754;DHT22;59593;51.716;7.016;2023-04-08T08:53:19;9.50;99.90
71754;DHT22;59593;51.716;7.016;2023-04-08T08:55:47;8.90;99.90
71754;DHT22;59593;51.716;7.016;2023-04-08T08:58:13;9.10;99.90
71754;DHT22;59593;51.716;7.016;2023-04-08T09:00:40;8.80;99.90
71754;DHT22;59593;51.716;7.016;2023-04-08T09:03:20;8.80;99.90
71754;DHT22;59593;51.716;7.016;2023-04-08T09:05:58;8.80;99.90
71754;DHT22;59593;51.716;7.016;2023-04-08T09:08:36;9.00;99.90
71754;DHT22;59593;51.716;7.016;2023-04-08T09:13:37;9.10;99.90
71754;DHT22;59593;51.716;7.016;2023-04-08T09:16:08;9.50;99.90
71754;DHT22;59593;51.716;7.016;2023-04-08T09:18:35;9.70;99.90
71754;DHT22;59593;51.716;7.016;2023-04-08T09:21:02;9.60;99.90
71754;DHT22;59593;51.716;7.016;2023-04-08T09:23:46;9.60;99.90
71754;DHT22;59593;51.716;7.016;2023-04-08T09:26:14;9.70;99.90
71754;DHT22;59593;51.716;7.016;2023-04-08T09:28:42;9.60;99.90
71754;DHT22;59593;51.716;7.016;2023-04-08T09:31:40;9.50;99.90
71754;DHT22;59593;51.716;7.016;2023-04-08T09:34:13;9.50;99.90
71754;DHT22;59593;51.716;7.016;2023-04-08T09:36:41;9.30;99.90
71754;DHT22;59593;51.716;7.016;2023-04-08T09:39:06;9.30;99.90
71754;DHT22;59593;51.716;7.016;2023-04-08T09:41:36;9.20;99.90
71754;DHT22;59593;51.716;7.016;2023-04-08T09:44:08;9.40;99.90
71754;DHT22;59593;51.716;7.016;2023-04-08T09:49:32;9.80;99.90
71754;DHT22;59593;51.716;7.016;2023-04-08T09:55:04;9.80;99.90
71754;DHT22;59593;51.716;7.016;2023-04-08T09:57:57;9.60;99.90
71754;DHT22;59593;51.716;7.016;2023-04-08T10:00:33;9.50;99.90
71754;DHT22;59593;51.716;7.016;2023-04-08T10:03:14;9.40;99.90
71754;DHT22;59593;51.716;7.016;2023-04-08T10:05:44;9.50;99.90
71754;DHT22;59593;51.716;7.016;2023-04-08T10:08:10;9.40;99.90
71754;DHT22;59593;51.716;7.016;2023-04-08T10:10:40;9.60;99.90
71754;DHT22;59593;51.716;7.016;2023-04-08T10:13:07;9.60;99.90
71754;DHT22;59593;51.716;7.016;2023-04-08T10:15:34;9.90;99.90
71754;DHT22;59593;51.716;7.016;2023-04-08T10:25:37;9.70;99.90
71754;DHT22;59593;51.716;7.016;2023-04-08T10:30:47;9.80;99.90
71754;DHT22;59593;51.716;7.016;2023-04-08T10:38:20;9.50;99.90
71754;DHT22;59593;51.716;7.016;2023-04-08T10:40:47;9.70;99.90
71754;DHT22;59593;51.716;7.016;2023-04-08T10:43:14;10.00;99.90
71754;DHT22;59593;51.716;7.016;2023-04-08T10:45:41;10.30;99.90
71754;DHT22;59593;51.716;7.016;2023-04-08T10:48:14;10.40;99.90
71754;DHT22;59593;51.716;7.016;2023-04-08T10:50:43;10.50;99.90
71754;DHT22;59593;51.716;7.016;2023-04-08T10:53:09;10.10;99.90
71754;DHT22;59593;51.716;7.016;2023-04-08T10:55:35;9.90;99.90
71754;DHT22;59593;51.716;7.016;2023-04-08T10:58:09;9.90;99.90
71754;DHT22;59593;51.716;7.016;2023-04-08T11:00:39;10.10;99.90
71754;DHT22;59593;51.716;7.016;2023-04-08T11:03:09;10.30;99.90
71754;DHT22;59593;51.716;7.016;2023-04-08T11:05:36;10.30;99.90
71754;DHT22;59593;51.716;7.016;2023-04-08T11:08:03;10.90;99.90
71754;DHT22;59593;51.716;7.016;2023-04-08T11:10:29;11.20;99.90
71754;DHT22;59593;51.716;7.016;2023-04-08T11:12:56;11.20;99.90
71754;DHT22;59593;51.716;7.016;2023-04-08T11:15:23;11.60;99.90
71754;DHT22;59593;51.716;7.016;2023-04-08T11:17:49;11.10;99.90
71754;DHT22;59593;51.716;7.016;2023-04-08T11:20:15;11.60;99.90
71754;DHT22;59593;51.716;7.016;2023-04-08T11:22:41;11.80;99.90
71754;DHT22;59593;51.716;7.016;2023-04-08T11:25:08;11.90;99.90
71754;DHT22;59593;51.716;7.016;2023-04-08T11:27:35;10.80;99.90
71754;DHT22;59593;51.716;7.016;2023-04-08T11:30:01;10.30;99.90
71754;DHT22;59593;51.716;7.016;2023-04-08T11:32:27;10.50;99.90
71754;DHT22;59593;51.716;7.016;2023-04-08T11:34:57;11.40;99.90
71754;DHT22;59593;51.716;7.016;2023-04-08T11:37:25;12.40;99.90
71754;DHT22;59593;51.716;7.016;2023-04-08T11:39:50;13.50;99.90
71754;DHT22;59593;51.716;7.016;2023-04-08T11:42:32;14.30;99.90
71754;DHT22;59593;51.716;7.016;2023-04-08T11:44:58;14.70;99.90
71754;DHT22;59593;51.716;7.016;2023-04-08T11:47:33;15.00;99.90
71754;DHT22;59593;51.716;7.016;2023-04-08T11:49:59;15.10;99.90
71754;DHT22;59593;51.716;7.016;2023-04-08T11:52:46;14.90;99.90
71754;DHT22;59593;51.716;7.016;2023-04-08T11:55:24;14.20;99.90
71754;DHT22;59593;51.716;7.016;2023-04-08T11:57:50;13.40;99.90
71754;DHT22;59593;51.716;7.016;2023-04-08T12:00:17;13.50;99.90
71754;DHT22;59593;51.716;7.016;2023-04-08T12:02:44;13.00;99.90
71754;DHT22;59593;51.716;7.016;2023-04-08T12:05:09;12.40;99.90
71754;DHT22;59593;51.716;7.016;2023-04-08T12:07:35;12.40;99.90
71754;DHT22;59593;51.716;7.016;2023-04-08T12:10:01;12.60;99.90
71754;DHT22;59593;51.716;7.016;2023-04-08T12:12:27;12.50;99.90
71754;DHT22;59593;51.716;7.016;2023-04-08T12:14:52;12.40;99.90
71754;DHT22;59593;51.716;7.016;2023-04-08T12:17:18;12.20;99.90
71754;DHT22;59593;51.716;7.016;2023-04-08T12:19:47;11.90;99.90
71754;DHT22;59593;51.716;7.016;2023-04-08T12:22:12;11.50;99.90
71754;DHT22;59593;51.716;7.016;2023-04-08T12:24:38;11.50;99.90
71754;DHT22;59593;51.716;7.016;2023-04-08T12:27:03;11.70;99.90
71754;DHT22;59593;51.716;7.016;2023-04-08T12:29:30;11.50;99.90
71754;DHT22;59593;51.716;7.016;2023-04-08T12:31:55;11.60;99.90
71754;DHT22;59593;51.716;7.016;2023-04-08T12:34:21;11.60;99.90
71754;DHT22;59593;51.716;7.016;2023-04-08T12:36:47;11.40;99.90
71754;DHT22;59593;51.716;7.016;2023-04-08T12:39:14;11.50;99.90
71754;DHT22;59593;51.716;7.016;2023-04-08T12:41:39;11.50;99.90
71754;DHT22;59593;51.716;7.016;2023-04-08T12:44:05;11.60;99.90
71754;DHT22;59593;51.716;7.016;2023-04-08T12:46:31;11.50;99.90
71754;DHT22;59593;51.716;7.016;2023-04-08T12:48:57;11.30;99.90
71754;DHT22;59593;51.716;7.016;2023-04-08T12:51:22;11.20;99.90
71754;DHT22;59593;51.716;7.016;2023-04-08T12:53:50;11.00;99.90
71754;DHT22;59593;51.716;7.016;2023-04-08T12:56:16;11.20;99.90
71754;DHT22;59593;51.716;7.016;2023-04-08T12:58:42;11.40;99.90
71754;DHT22;59593;51.716;7.016;2023-04-08T13:01:07;11.10;99.90
71754;DHT22;59593;51.716;7.016;2023-04-08T13:03:33;11.10;99.90
71754;DHT22;59593;51.716;7.016;2023-04-08T13:06:01;11.00;99.90
71754;DHT22;59593;51.716;7.016;2023-04-08T13:08:27;10.90;99.90
71754;DHT22;59593;51.716;7.016;2023-04-08T13:10:53;11.10;99.90
71754;DHT22;59593;51.716;7.016;2023-04-08T13:13:19;11.40;99.90
71754;DHT22;59593;51.716;7.016;2023-04-08T13:15:45;10.90;99.90
71754;DHT22;59593;51.716;7.016;2023-04-08T13:18:11;10.90;99.90
71754;DHT22;59593;51.716;7.016;2023-04-08T13:20:37;11.00;99.90
71754;DHT22;59593;51.716;7.016;2023-04-08T13:23:02;11.10;99.90
71754;DHT22;59593;51.716;7.016;2023-04-08T13:25:28;11.10;99.90
71754;DHT22;59593;51.716;7.016;2023-04-08T13:27:53;11.40;99.90
71754;DHT22;59593;51.716;7.016;2023-04-08T13:30:19;11.60;99.90
71754;DHT22;59593;51.716;7.016;2023-04-08T13:32:45;11.60;99.90
71754;DHT22;59593;51.716;7.016;2023-04-08T13:35:10;11.50;99.90
71754;DHT22;59593;51.716;7.016;2023-04-08T13:37:36;11.60;99.90
71754;DHT22;59593;51.716;7.016;2023-04-08T13:40:02;11.80;99.90
71754;DHT22;59593;51.716;7.016;2023-04-08T13:42:28;11.90;99.90
71754;DHT22;59593;51.716;7.016;2023-04-08T13:44:56;12.00;99.90
71754;DHT22;59593;51.716;7.016;2023-04-08T13:47:22;12.20;99.90
71754;DHT22;59593;51.716;7.016;2023-04-08T13:49:48;12.30;99.90
71754;DHT22;59593;51.716;7.016;2023-04-08T13:52:13;12.10;99.90
71754;DHT22;59593;51.716;7.016;2023-04-08T13:54:39;11.80;99.90
71754;DHT22;59593;51.716;7.016;2023-04-08T13:57:05;11.80;99.90
71754;DHT22;59593;51.716;7.016;2023-04-08T13:59:31;11.40;99.90
71754;DHT22;59593;51.716;7.016;2023-04-08T14:01:56;11.40;99.90
71754;DHT22;59593;51.716;7.016;2023-04-08T14:04:22;11.50;99.90
71754;DHT22;59593;51.716;7.016;2023-04-08T14:06:49;11.40;99.90
71754;DHT22;59593;51.716;7.016;2023-04-08T14:09:19;11.40;99.90
71754;DHT22;59593;51.716;7.016;2023-04-08T14:11:45;11.50;99.90
71754;DHT22;59593;51.716;7.016;2023-04-08T14:14:11;11.60;99.90
71754;DHT22;59593;51.716;7.016;2023-04-08T14:16:37;11.50;99.90
71754;DHT22;59593;51.716;7.016;2023-04-08T14:19:03;11.70;99.90
71754;DHT22;59593;51.716;7.016;2023-04-08T14:21:29;11.80;99.90
71754;DHT22;59593;51.716;7.016;2023-04-08T14:23:56;11.80;99.90
71754;DHT22;59593;51.716;7.016;2023-04-08T14:26:22;12.00;99.90
71754;DHT22;59593;51.716;7.016;2023-04-08T14:28:47;12.00;99.90
71754;DHT22;59593;51.716;7.016;2023-04-08T14:31:13;12.10;99.90
71754;DHT22;59593;51.716;7.016;2023-04-08T14:33:39;12.20;99.90
71754;DHT22;59593;51.716;7.016;2023-04-08T14:36:05;12.30;99.90
71754;DHT22;59593;51.716;7.016;2023-04-08T14:38:31;12.30;99.90
71754;DHT22;59593;51.716;7.016;2023-04-08T14:40:57;11.90;99.90
71754;DHT22;59593;51.716;7.016;2023-04-08T14:43:22;12.10;99.90
71754;DHT22;59593;51.716;7.016;2023-04-08T14:45:51;12.10;99.90
71754;DHT22;59593;51.716;7.016;2023-04-08T14:48:17;12.10;99.90
71754;DHT22;59593;51.716;7.016;2023-04-08T14:50:43;12.30;99.90
71754;DHT22;59593;51.716;7.016;2023-04-08T14:53:09;12.40;99.90
71754;DHT22;59593;51.716;7.016;2023-04-08T14:55:35;12.50;99.90
71754;DHT22;59593;51.716;7.016;2023-04-08T14:58:01;12.60;99.90
71754;DHT22;59593;51.716;7.016;2023-04-08T15:00:27;12.50;99.90
71754;DHT22;59593;51.716;7.016;2023-04-08T15:02:52;12.50;99.90
71754;DHT22;59593;51.716;7.016;2023-04-08T15:05:18;12.40;99.90
71754;DHT22;59593;51.716;7.016;2023-04-08T15:07:44;12.40;99.90
71754;DHT22;59593;51.716;7.016;2023-04-08T15:10:11;12.50;99.90
71754;DHT22;59593;51.716;7.016;2023-04-08T15:12:37;12.70;99.90
71754;DHT22;59593;51.716;7.016;2023-04-08T15:15:03;12.50;99.90
71754;DHT22;59593;51.716;7.016;2023-04-08T15:17:29;12.60;99.90
71754;DHT22;59593;51.716;7.016;2023-04-08T15:19:55;12.20;99.90
71754;DHT22;59593;51.716;7.016;2023-04-08T15:22:20;11.80;99.90
71754;DHT22;59593;51.716;7.016;2023-04-08T15:24:46;12.00;99.90
71754;DHT22;59593;51.716;7.016;2023-04-08T15:27:12;12.10;99.90
71754;DHT22;59593;51.716;7.016;2023-04-08T15:29:38;12.10;99.90
71754;DHT22;59593;51.716;7.016;2023-04-08T15:32:04;12.20;99.90
71754;DHT22;59593;51.716;7.016;2023-04-08T15:34:30;12.10;99.90
71754;DHT22;59593;51.716;7.016;2023-04-08T15:36:56;11.90;99.90
71754;DHT22;59593;51.716;7.016;2023-04-08T15:39:22;11.90;99.90
71754;DHT22;59593;51.716;7.016;2023-04-08T15:41:48;11.90;99.90
71754;DHT22;59593;51.716;7.016;2023-04-08T15:44:14;11.90;99.90
71754;DHT22;59593;51.716;7.016;2023-04-08T15:46:40;12.00;99.90
71754;DHT22;59593;51.716;7.016;2023-04-08T15:49:06;12.20;99.90
71754;DHT22;59593;51.716;7.016;2023-04-08T15:51:32;12.20;99.90
71754;DHT22;59593;51.716;7.016;2023-04-08T15:53:58;12.00;99.90
71754;DHT22;59593;51.716;7.016;2023-04-08T15:56:24;12.20;99.90
71754;DHT22;59593;51.716;7.016;2023-04-08T15:58:51;12.20;99.90
71754;DHT22;59593;51.716;7.016;2023-04-08T16:01:17;12.10;99.90
71754;DHT22;59593;51.716;7.016;2023-04-08T16:03:44;12.10;99.90